sensor_id;sensor_type;location;lat;lon;timestamp;P1;durP1;ratioP1;P2;durP2;ratioP2
4674;SDS011;2351;50.812;12.872;2022-11-18T00:01:37;4.70;;;2.40;;
4674;SDS011;2351;50.812;12.872;2022-11-18T00:04:09;3.50;;;2.30;;
4674;SDS011;2351;50.812;12.872;2022-11-18T00:06:40;5.97;;;2.57;;
4674;SDS011;2351;50.812;12.872;2022-11-18T00:09:12;5.40;;;3.10;;
4674;SDS011;2351;50.812;12.872;2022-11-18T00:11:45;5.20;;;3.13;;
4674;SDS011;2351;50.812;12.872;2022-11-18T00:14:34;3.23;;;2.70;;
4674;SDS011;2351;50.812;12.872;2022-11-18T00:17:06;5.90;;;2.27;;
4674;SDS011;2351;50.812;12.872;2022-11-18T00:19:38;2.77;;;2.33;;
4674;SDS011;2351;50.812;12.872;2022-11-18T00:22:11;3.77;;;2.57;;
4674;SDS011;2351;50.812;12.872;2022-11-18T00:24:43;3.97;;;2.60;;
4674;SDS011;2351;50.812;12.872;2022-11-18T00:27:16;4.23;;;2.60;;
4674;SDS011;2351;50.812;12.872;2022-11-18T00:29:48;2.80;;;2.53;;
4674;SDS011;2351;50.812;12.872;2022-11-18T00:32:20;3.20;;;2.10;;
4674;SDS011;2351;50.812;12.872;2022-11-18T00:34:51;3.40;;;2.73;;
4674;SDS011;2351;50.812;12.872;2022-11-18T00:37:23;3.67;;;3.07;;
4674;SDS011;2351;50.812;12.872;2022-11-18T00:39:55;7.40;;;3.50;;
4674;SDS011;2351;50.812;12.872;2022-11-18T00:42:28;5.07;;;2.43;;
4674;SDS011;2351;50.812;12.872;2022-11-18T00:45:17;3.43;;;2.90;;
4674;SDS011;2351;50.812;12.872;2022-11-18T00:47:48;2.53;;;2.30;;
4674;SDS011;2351;50.812;12.872;2022-11-18T00:50:20;3.83;;;2.73;;
4674;SDS011;2351;50.812;12.872;2022-11-18T00:52:52;3.10;;;2.80;;
4674;SDS011;2351;50.812;12.872;2022-11-18T00:55:23;3.83;;;2.80;;
4674;SDS011;2351;50.812;12.872;2022-11-18T00:57:56;5.73;;;3.00;;
4674;SDS011;2351;50.812;12.872;2022-11-18T01:00:28;4.83;;;3.23;;
4674;SDS011;2351;50.812;12.872;2022-11-18T01:03:00;6.97;;;2.63;;
4674;SDS011;2351;50.812;12.872;2022-11-18T01:05:32;4.20;;;2.63;;
4674;SDS011;2351;50.812;12.872;2022-11-18T01:08:04;4.40;;;2.60;;
4674;SDS011;2351;50.812;12.872;2022-11-18T01:10:36;2.40;;;2.20;;
4674;SDS011;2351;50.812;12.872;2022-11-18T01:13:12;5.87;;;2.37;;
4674;SDS011;2351;50.812;12.872;2022-11-18T01:15:51;3.90;;;3.00;;
4674;SDS011;2351;50.812;12.872;2022-11-18T01:18:24;5.70;;;2.83;;
4674;SDS011;2351;50.812;12.872;2022-11-18T01:20:58;8.83;;;3.47;;
4674;SDS011;2351;50.812;12.872;2022-11-18T01:23:31;4.23;;;3.10;;
4674;SDS011;2351;50.812;12.872;2022-11-18T01:26:03;4.63;;;3.17;;
4674;SDS011;2351;50.812;12.872;2022-11-18T01:28:37;5.17;;;3.90;;
4674;SDS011;2351;50.812;12.872;2022-11-18T01:31:10;5.57;;;3.17;;
4674;SDS011;2351;50.812;12.872;2022-11-18T01:33:44;4.80;;;3.03;;
4674;SDS011;2351;50.812;12.872;2022-11-18T01:36:17;6.43;;;3.00;;
4674;SDS011;2351;50.812;12.872;2022-11-18T01:38:50;3.57;;;2.63;;
4674;SDS011;2351;50.812;12.872;2022-11-18T01:41:23;4.97;;;2.90;;
4674;SDS011;2351;50.812;12.872;2022-11-18T01:43:58;4.90;;;3.33;;
4674;SDS011;2351;50.812;12.872;2022-11-18T01:46:32;3.77;;;2.67;;
4674;SDS011;2351;50.812;12.872;2022-11-18T01:49:05;3.40;;;2.77;;
4674;SDS011;2351;50.812;12.872;2022-11-18T01:51:40;4.83;;;3.30;;
4674;SDS011;2351;50.812;12.872;2022-11-18T01:54:19;6.17;;;2.97;;
4674;SDS011;2351;50.812;12.872;2022-11-18T01:56:55;4.77;;;3.00;;
4674;SDS011;2351;50.812;12.872;2022-11-18T01:59:32;7.10;;;3.83;;
4674;SDS011;2351;50.812;12.872;2022-11-18T02:02:07;8.03;;;3.80;;
4674;SDS011;2351;50.812;12.872;2022-11-18T02:04:43;3.67;;;2.20;;
4674;SDS011;2351;50.812;12.872;2022-11-18T02:07:18;4.10;;;3.27;;
4674;SDS011;2351;50.812;12.872;2022-11-18T02:09:50;9.20;;;3.60;;
4674;SDS011;2351;50.812;12.872;2022-11-18T02:12:23;3.53;;;3.10;;
4674;SDS011;2351;50.812;12.872;2022-11-18T02:14:56;6.17;;;3.30;;
4674;SDS011;2351;50.812;12.872;2022-11-18T02:17:32;6.60;;;3.73;;
4674;SDS011;2351;50.812;12.872;2022-11-18T02:20:24;5.40;;;3.80;;
4674;SDS011;2351;50.812;12.872;2022-11-18T02:29:27;6.93;;;4.07;;
4674;SDS011;2351;50.812;12.872;2022-11-18T02:32:02;3.80;;;3.37;;
4674;SDS011;2351;50.812;12.872;2022-11-18T02:34:42;8.00;;;3.57;;
4674;SDS011;2351;50.812;12.872;2022-11-18T02:37:20;3.97;;;2.87;;
4674;SDS011;2351;50.812;12.872;2022-11-18T02:39:57;6.40;;;3.57;;
4674;SDS011;2351;50.812;12.872;2022-11-18T02:42:31;5.57;;;3.80;;
4674;SDS011;2351;50.812;12.872;2022-11-18T02:45:09;3.33;;;3.03;;
4674;SDS011;2351;50.812;12.872;2022-11-18T02:47:45;6.10;;;3.53;;
4674;SDS011;2351;50.812;12.872;2022-11-18T02:50:18;4.90;;;3.97;;
4674;SDS011;2351;50.812;12.872;2022-11-18T02:52:55;6.70;;;3.70;;
4674;SDS011;2351;50.812;12.872;2022-11-18T02:55:30;6.00;;;3.30;;
4674;SDS011;2351;50.812;12.872;2022-11-18T02:58:05;4.37;;;3.20;;
4674;SDS011;2351;50.812;12.872;2022-11-18T03:00:40;5.67;;;3.80;;
4674;SDS011;2351;50.812;12.872;2022-11-18T03:03:23;3.83;;;3.00;;
4674;SDS011;2351;50.812;12.872;2022-11-18T03:06:01;6.53;;;3.83;;
4674;SDS011;2351;50.812;12.872;2022-11-18T03:08:38;8.27;;;4.03;;
4674;SDS011;2351;50.812;12.872;2022-11-18T03:11:16;5.77;;;3.60;;
4674;SDS011;2351;50.812;12.872;2022-11-18T03:13:57;4.17;;;3.23;;
4674;SDS011;2351;50.812;12.872;2022-11-18T03:16:39;4.47;;;3.87;;
4674;SDS011;2351;50.812;12.872;2022-11-18T03:19:17;4.93;;;3.57;;
4674;SDS011;2351;50.812;12.872;2022-11-18T03:21:56;4.67;;;3.03;;
4674;SDS011;2351;50.812;12.872;2022-11-18T03:24:38;6.70;;;4.33;;
4674;SDS011;2351;50.812;12.872;2022-11-18T03:27:15;7.30;;;4.07;;
4674;SDS011;2351;50.812;12.872;2022-11-18T03:29:53;5.10;;;3.30;;
4674;SDS011;2351;50.812;12.872;2022-11-18T03:32:30;4.40;;;3.60;;
4674;SDS011;2351;50.812;12.872;2022-11-18T03:35:06;5.70;;;3.80;;
4674;SDS011;2351;50.812;12.872;2022-11-18T03:37:42;6.53;;;4.10;;
4674;SDS011;2351;50.812;12.872;2022-11-18T03:40:17;6.40;;;4.00;;
4674;SDS011;2351;50.812;12.872;2022-11-18T03:42:53;5.10;;;3.20;;
4674;SDS011;2351;50.812;12.872;2022-11-18T03:45:31;6.27;;;3.10;;
4674;SDS011;2351;50.812;12.872;2022-11-18T03:48:09;7.90;;;4.10;;
4674;SDS011;2351;50.812;12.872;2022-11-18T03:50:44;5.90;;;4.13;;
4674;SDS011;2351;50.812;12.872;2022-11-18T03:53:20;5.40;;;3.73;;
4674;SDS011;2351;50.812;12.872;2022-11-18T03:55:59;6.30;;;3.60;;
4674;SDS011;2351;50.812;12.872;2022-11-18T03:58:37;7.40;;;4.50;;
4674;SDS011;2351;50.812;12.872;2022-11-18T04:01:14;5.50;;;3.63;;
4674;SDS011;2351;50.812;12.872;2022-11-18T04:03:51;10.67;;;4.53;;
4674;SDS011;2351;50.812;12.872;2022-11-18T04:06:24;6.50;;;4.10;;
4674;SDS011;2351;50.812;12.872;2022-11-18T04:09:02;8.30;;;4.23;;
4674;SDS011;2351;50.812;12.872;2022-11-18T04:11:42;5.33;;;3.60;;
4674;SDS011;2351;50.812;12.872;2022-11-18T04:14:33;7.03;;;4.77;;
4674;SDS011;2351;50.812;12.872;2022-11-18T04:17:07;12.67;;;4.07;;
4674;SDS011;2351;50.812;12.872;2022-11-18T04:19:42;5.63;;;3.80;;
4674;SDS011;2351;50.812;12.872;2022-11-18T04:22:14;7.20;;;4.30;;
4674;SDS011;2351;50.812;12.872;2022-11-18T04:24:47;7.13;;;3.73;;
4674;SDS011;2351;50.812;12.872;2022-11-18T04:27:18;5.30;;;3.60;;
4674;SDS011;2351;50.812;12.872;2022-11-18T04:29:50;6.10;;;3.60;;
4674;SDS011;2351;50.812;12.872;2022-11-18T04:32:22;4.90;;;4.20;;
4674;SDS011;2351;50.812;12.872;2022-11-18T04:34:55;6.13;;;3.43;;
4674;SDS011;2351;50.812;12.872;2022-11-18T04:37:26;7.33;;;4.90;;
4674;SDS011;2351;50.812;12.872;2022-11-18T04:39:58;7.03;;;4.07;;
4674;SDS011;2351;50.812;12.872;2022-11-18T04:42:30;7.10;;;4.23;;
4674;SDS011;2351;50.812;12.872;2022-11-18T04:45:01;9.00;;;4.70;;
4674;SDS011;2351;50.812;12.872;2022-11-18T04:47:34;5.33;;;4.57;;
4674;SDS011;2351;50.812;12.872;2022-11-18T04:50:07;6.47;;;3.80;;
4674;SDS011;2351;50.812;12.872;2022-11-18T04:52:40;8.87;;;4.20;;
4674;SDS011;2351;50.812;12.872;2022-11-18T04:55:11;8.70;;;4.73;;
4674;SDS011;2351;50.812;12.872;2022-11-18T04:57:43;8.10;;;4.67;;
4674;SDS011;2351;50.812;12.872;2022-11-18T05:00:15;8.90;;;4.67;;
4674;SDS011;2351;50.812;12.872;2022-11-18T05:02:47;9.70;;;5.67;;
4674;SDS011;2351;50.812;12.872;2022-11-18T05:05:20;8.33;;;5.10;;
4674;SDS011;2351;50.812;12.872;2022-11-18T05:07:52;7.57;;;4.90;;
4674;SDS011;2351;50.812;12.872;2022-11-18T05:10:24;7.57;;;4.87;;
4674;SDS011;2351;50.812;12.872;2022-11-18T05:12:55;8.60;;;4.57;;
4674;SDS011;2351;50.812;12.872;2022-11-18T05:15:26;7.80;;;4.47;;
4674;SDS011;2351;50.812;12.872;2022-11-18T05:17:58;12.47;;;4.60;;
4674;SDS011;2351;50.812;12.872;2022-11-18T05:20:31;6.47;;;4.60;;
4674;SDS011;2351;50.812;12.872;2022-11-18T05:23:02;10.60;;;5.10;;
4674;SDS011;2351;50.812;12.872;2022-11-18T05:25:34;5.97;;;3.77;;
4674;SDS011;2351;50.812;12.872;2022-11-18T05:28:06;7.17;;;4.13;;
4674;SDS011;2351;50.812;12.872;2022-11-18T05:30:38;7.63;;;4.70;;
4674;SDS011;2351;50.812;12.872;2022-11-18T05:33:09;10.23;;;5.17;;
4674;SDS011;2351;50.812;12.872;2022-11-18T05:35:42;10.73;;;5.17;;
4674;SDS011;2351;50.812;12.872;2022-11-18T05:38:14;11.87;;;6.10;;
4674;SDS011;2351;50.812;12.872;2022-11-18T05:40:46;7.67;;;4.97;;
4674;SDS011;2351;50.812;12.872;2022-11-18T05:43:18;7.43;;;5.03;;
4674;SDS011;2351;50.812;12.872;2022-11-18T05:45:49;6.13;;;4.20;;
4674;SDS011;2351;50.812;12.872;2022-11-18T05:48:21;11.70;;;4.23;;
4674;SDS011;2351;50.812;12.872;2022-11-18T05:50:55;10.37;;;6.50;;
4674;SDS011;2351;50.812;12.872;2022-11-18T05:53:26;7.00;;;4.87;;
4674;SDS011;2351;50.812;12.872;2022-11-18T05:55:59;10.80;;;5.80;;
4674;SDS011;2351;50.812;12.872;2022-11-18T05:58:34;14.10;;;7.10;;
4674;SDS011;2351;50.812;12.872;2022-11-18T06:01:06;15.20;;;8.03;;
4674;SDS011;2351;50.812;12.872;2022-11-18T06:03:40;33.20;;;10.40;;
4674;SDS011;2351;50.812;12.872;2022-11-18T06:06:14;30.40;;;14.47;;
4674;SDS011;2351;50.812;12.872;2022-11-18T06:08:50;32.90;;;14.97;;
4674;SDS011;2351;50.812;12.872;2022-11-18T06:11:25;37.73;;;14.90;;
4674;SDS011;2351;50.812;12.872;2022-11-18T06:13:59;22.40;;;9.80;;
4674;SDS011;2351;50.812;12.872;2022-11-18T06:16:34;18.07;;;8.33;;
4674;SDS011;2351;50.812;12.872;2022-11-18T06:19:10;12.80;;;7.90;;
4674;SDS011;2351;50.812;12.872;2022-11-18T06:21:43;14.93;;;8.07;;
4674;SDS011;2351;50.812;12.872;2022-11-18T06:24:16;13.40;;;6.53;;
4674;SDS011;2351;50.812;12.872;2022-11-18T06:26:48;12.07;;;6.93;;
4674;SDS011;2351;50.812;12.872;2022-11-18T06:29:20;9.90;;;6.47;;
4674;SDS011;2351;50.812;12.872;2022-11-18T06:31:52;13.63;;;6.57;;
4674;SDS011;2351;50.812;12.872;2022-11-18T06:34:24;18.07;;;8.50;;
4674;SDS011;2351;50.812;12.872;2022-11-18T06:36:57;12.70;;;6.87;;
4674;SDS011;2351;50.812;12.872;2022-11-18T06:39:29;14.17;;;8.07;;
4674;SDS011;2351;50.812;12.872;2022-11-18T06:42:00;18.23;;;7.20;;
4674;SDS011;2351;50.812;12.872;2022-11-18T06:44:32;15.30;;;7.73;;
4674;SDS011;2351;50.812;12.872;2022-11-18T06:47:03;11.57;;;7.17;;
4674;SDS011;2351;50.812;12.872;2022-11-18T06:49:34;23.10;;;9.27;;
4674;SDS011;2351;50.812;12.872;2022-11-18T06:52:07;19.20;;;8.00;;
4674;SDS011;2351;50.812;12.872;2022-11-18T06:54:39;15.50;;;9.17;;
4674;SDS011;2351;50.812;12.872;2022-11-18T06:57:11;23.07;;;10.00;;
4674;SDS011;2351;50.812;12.872;2022-11-18T06:59:43;18.87;;;9.83;;
4674;SDS011;2351;50.812;12.872;2022-11-18T07:02:14;28.27;;;11.40;;
4674;SDS011;2351;50.812;12.872;2022-11-18T07:04:47;24.00;;;11.80;;
4674;SDS011;2351;50.812;12.872;2022-11-18T07:07:21;20.67;;;10.90;;
4674;SDS011;2351;50.812;12.872;2022-11-18T07:09:52;25.00;;;11.80;;
4674;SDS011;2351;50.812;12.872;2022-11-18T07:12:24;28.40;;;12.20;;
4674;SDS011;2351;50.812;12.872;2022-11-18T07:14:56;27.60;;;12.23;;
4674;SDS011;2351;50.812;12.872;2022-11-18T07:17:28;25.57;;;11.70;;
4674;SDS011;2351;50.812;12.872;2022-11-18T07:20:00;22.47;;;11.43;;
4674;SDS011;2351;50.812;12.872;2022-11-18T07:22:33;27.00;;;12.73;;
4674;SDS011;2351;50.812;12.872;2022-11-18T07:25:05;29.53;;;12.33;;
4674;SDS011;2351;50.812;12.872;2022-11-18T07:27:37;31.00;;;12.77;;
4674;SDS011;2351;50.812;12.872;2022-11-18T07:30:09;27.03;;;13.03;;
4674;SDS011;2351;50.812;12.872;2022-11-18T07:32:41;19.53;;;10.53;;
4674;SDS011;2351;50.812;12.872;2022-11-18T07:35:13;32.67;;;12.60;;
4674;SDS011;2351;50.812;12.872;2022-11-18T07:37:47;23.17;;;10.87;;
4674;SDS011;2351;50.812;12.872;2022-11-18T07:40:19;26.60;;;11.33;;
4674;SDS011;2351;50.812;12.872;2022-11-18T07:42:50;21.23;;;9.87;;
4674;SDS011;2351;50.812;12.872;2022-11-18T07:45:23;14.77;;;7.80;;
4674;SDS011;2351;50.812;12.872;2022-11-18T07:47:55;19.27;;;8.10;;
4674;SDS011;2351;50.812;12.872;2022-11-18T07:50:27;15.53;;;7.40;;
4674;SDS011;2351;50.812;12.872;2022-11-18T07:53:00;13.37;;;7.50;;
4674;SDS011;2351;50.812;12.872;2022-11-18T07:55:32;14.50;;;7.97;;
4674;SDS011;2351;50.812;12.872;2022-11-18T07:58:03;20.47;;;7.30;;
4674;SDS011;2351;50.812;12.872;2022-11-18T08:00:35;18.50;;;8.20;;
4674;SDS011;2351;50.812;12.872;2022-11-18T08:03:07;13.93;;;7.20;;
4674;SDS011;2351;50.812;12.872;2022-11-18T08:05:38;15.47;;;7.63;;
4674;SDS011;2351;50.812;12.872;2022-11-18T08:08:11;15.27;;;7.27;;
4674;SDS011;2351;50.812;12.872;2022-11-18T08:10:43;18.60;;;8.17;;
4674;SDS011;2351;50.812;12.872;2022-11-18T08:13:15;14.23;;;7.00;;
4674;SDS011;2351;50.812;12.872;2022-11-18T08:15:46;13.40;;;7.83;;
4674;SDS011;2351;50.812;12.872;2022-11-18T08:18:18;15.10;;;7.90;;
4674;SDS011;2351;50.812;12.872;2022-11-18T08:20:50;18.57;;;9.33;;
4674;SDS011;2351;50.812;12.872;2022-11-18T08:23:23;17.53;;;7.83;;
4674;SDS011;2351;50.812;12.872;2022-11-18T08:26:00;17.97;;;8.27;;
4674;SDS011;2351;50.812;12.872;2022-11-18T08:28:33;20.13;;;8.20;;
4674;SDS011;2351;50.812;12.872;2022-11-18T08:31:08;18.00;;;8.47;;
4674;SDS011;2351;50.812;12.872;2022-11-18T08:33:41;17.67;;;9.00;;
4674;SDS011;2351;50.812;12.872;2022-11-18T08:36:14;17.50;;;8.57;;
4674;SDS011;2351;50.812;12.872;2022-11-18T08:38:49;17.17;;;7.93;;
4674;SDS011;2351;50.812;12.872;2022-11-18T08:41:28;17.37;;;8.60;;
4674;SDS011;2351;50.812;12.872;2022-11-18T08:44:02;15.03;;;7.63;;
4674;SDS011;2351;50.812;12.872;2022-11-18T08:46:35;19.70;;;8.40;;
4674;SDS011;2351;50.812;12.872;2022-11-18T08:49:07;18.53;;;9.50;;
4674;SDS011;2351;50.812;12.872;2022-11-18T08:51:38;18.63;;;8.73;;
4674;SDS011;2351;50.812;12.872;2022-11-18T08:54:11;14.60;;;7.33;;
4674;SDS011;2351;50.812;12.872;2022-11-18T08:56:43;16.13;;;7.77;;
4674;SDS011;2351;50.812;12.872;2022-11-18T08:59:15;12.97;;;7.00;;
4674;SDS011;2351;50.812;12.872;2022-11-18T09:01:47;13.43;;;7.27;;
4674;SDS011;2351;50.812;12.872;2022-11-18T09:04:19;12.93;;;6.90;;
4674;SDS011;2351;50.812;12.872;2022-11-18T09:06:50;13.50;;;8.23;;
4674;SDS011;2351;50.812;12.872;2022-11-18T09:09:24;14.80;;;8.00;;
4674;SDS011;2351;50.812;12.872;2022-11-18T09:11:55;18.13;;;9.10;;
4674;SDS011;2351;50.812;12.872;2022-11-18T09:14:27;16.97;;;8.33;;
4674;SDS011;2351;50.812;12.872;2022-11-18T09:16:59;21.13;;;8.53;;
4674;SDS011;2351;50.812;12.872;2022-11-18T09:19:31;23.53;;;9.07;;
4674;SDS011;2351;50.812;12.872;2022-11-18T09:22:02;17.30;;;8.70;;
4674;SDS011;2351;50.812;12.872;2022-11-18T09:24:36;14.50;;;7.90;;
4674;SDS011;2351;50.812;12.872;2022-11-18T09:27:08;19.37;;;7.93;;
4674;SDS011;2351;50.812;12.872;2022-11-18T09:29:40;22.50;;;9.17;;
4674;SDS011;2351;50.812;12.872;2022-11-18T09:32:12;16.00;;;8.20;;
4674;SDS011;2351;50.812;12.872;2022-11-18T09:34:43;22.00;;;10.17;;
4674;SDS011;2351;50.812;12.872;2022-11-18T09:37:15;18.67;;;9.10;;
4674;SDS011;2351;50.812;12.872;2022-11-18T09:39:48;17.03;;;8.90;;
4674;SDS011;2351;50.812;12.872;2022-11-18T09:42:24;19.70;;;8.50;;
4674;SDS011;2351;50.812;12.872;2022-11-18T09:45:11;17.57;;;8.90;;
4674;SDS011;2351;50.812;12.872;2022-11-18T09:47:50;17.40;;;8.97;;
4674;SDS011;2351;50.812;12.872;2022-11-18T09:50:21;19.70;;;8.20;;
4674;SDS011;2351;50.812;12.872;2022-11-18T09:52:57;20.73;;;9.00;;
4674;SDS011;2351;50.812;12.872;2022-11-18T09:55:36;25.40;;;9.63;;
4674;SDS011;2351;50.812;12.872;2022-11-18T09:58:11;20.07;;;9.40;;
4674;SDS011;2351;50.812;12.872;2022-11-18T10:00:48;15.30;;;8.47;;
4674;SDS011;2351;50.812;12.872;2022-11-18T10:03:22;26.40;;;10.40;;
4674;SDS011;2351;50.812;12.872;2022-11-18T10:05:59;15.53;;;8.50;;
4674;SDS011;2351;50.812;12.872;2022-11-18T10:08:38;15.70;;;8.10;;
4674;SDS011;2351;50.812;12.872;2022-11-18T10:11:17;20.17;;;9.37;;
4674;SDS011;2351;50.812;12.872;2022-11-18T10:13:54;21.37;;;10.23;;
4674;SDS011;2351;50.812;12.872;2022-11-18T10:16:39;21.87;;;10.67;;
4674;SDS011;2351;50.812;12.872;2022-11-18T10:19:28;25.70;;;10.37;;
4674;SDS011;2351;50.812;12.872;2022-11-18T10:22:09;17.20;;;9.50;;
4674;SDS011;2351;50.812;12.872;2022-11-18T10:24:50;19.17;;;9.50;;
4674;SDS011;2351;50.812;12.872;2022-11-18T10:27:25;21.83;;;10.33;;
4674;SDS011;2351;50.812;12.872;2022-11-18T10:30:05;19.43;;;8.63;;
4674;SDS011;2351;50.812;12.872;2022-11-18T10:32:52;18.53;;;10.00;;
4674;SDS011;2351;50.812;12.872;2022-11-18T10:35:26;24.07;;;10.17;;
4674;SDS011;2351;50.812;12.872;2022-11-18T10:38:01;21.20;;;10.30;;
4674;SDS011;2351;50.812;12.872;2022-11-18T10:40:35;32.00;;;9.67;;
4674;SDS011;2351;50.812;12.872;2022-11-18T10:43:10;19.00;;;9.83;;
4674;SDS011;2351;50.812;12.872;2022-11-18T10:45:42;19.80;;;10.23;;
4674;SDS011;2351;50.812;12.872;2022-11-18T10:48:16;33.07;;;11.60;;
4674;SDS011;2351;50.812;12.872;2022-11-18T10:50:49;22.23;;;9.73;;
4674;SDS011;2351;50.812;12.872;2022-11-18T10:53:28;23.23;;;11.27;;
4674;SDS011;2351;50.812;12.872;2022-11-18T10:56:02;22.53;;;10.23;;
4674;SDS011;2351;50.812;12.872;2022-11-18T10:58:39;28.73;;;11.20;;
4674;SDS011;2351;50.812;12.872;2022-11-18T11:01:14;21.50;;;10.87;;
4674;SDS011;2351;50.812;12.872;2022-11-18T11:03:55;29.27;;;11.20;;
4674;SDS011;2351;50.812;12.872;2022-11-18T11:06:33;21.17;;;10.17;;
4674;SDS011;2351;50.812;12.872;2022-11-18T11:09:09;24.50;;;10.33;;
4674;SDS011;2351;50.812;12.872;2022-11-18T11:11:56;22.63;;;10.70;;
4674;SDS011;2351;50.812;12.872;2022-11-18T11:14:33;31.10;;;11.40;;
4674;SDS011;2351;50.812;12.872;2022-11-18T11:17:09;31.97;;;12.03;;
4674;SDS011;2351;50.812;12.872;2022-11-18T11:19:46;25.83;;;12.30;;
4674;SDS011;2351;50.812;12.872;2022-11-18T11:22:22;22.97;;;12.13;;
4674;SDS011;2351;50.812;12.872;2022-11-18T11:24:54;26.40;;;13.40;;
4674;SDS011;2351;50.812;12.872;2022-11-18T11:27:35;29.47;;;12.70;;
4674;SDS011;2351;50.812;12.872;2022-11-18T11:30:17;27.30;;;13.80;;
4674;SDS011;2351;50.812;12.872;2022-11-18T11:33:02;26.60;;;12.33;;
4674;SDS011;2351;50.812;12.872;2022-11-18T11:35:46;34.43;;;11.00;;
4674;SDS011;2351;50.812;12.872;2022-11-18T11:38:29;37.33;;;13.00;;
4674;SDS011;2351;50.812;12.872;2022-11-18T11:41:12;26.63;;;11.20;;
4674;SDS011;2351;50.812;12.872;2022-11-18T11:47:06;27.57;;;10.90;;
4674;SDS011;2351;50.812;12.872;2022-11-18T11:50:08;19.83;;;10.03;;
4674;SDS011;2351;50.812;12.872;2022-11-18T11:52:48;20.70;;;9.90;;
4674;SDS011;2351;50.812;12.872;2022-11-18T11:55:27;18.23;;;8.90;;
4674;SDS011;2351;50.812;12.872;2022-11-18T11:58:22;18.33;;;9.40;;
4674;SDS011;2351;50.812;12.872;2022-11-18T12:01:10;13.83;;;7.87;;
4674;SDS011;2351;50.812;12.872;2022-11-18T12:03:51;24.50;;;8.73;;
4674;SDS011;2351;50.812;12.872;2022-11-18T12:06:27;13.53;;;6.33;;
4674;SDS011;2351;50.812;12.872;2022-11-18T12:09:01;11.93;;;6.93;;
4674;SDS011;2351;50.812;12.872;2022-11-18T12:11:40;20.00;;;6.23;;
4674;SDS011;2351;50.812;12.872;2022-11-18T12:14:20;16.67;;;7.37;;
4674;SDS011;2351;50.812;12.872;2022-11-18T12:17:02;16.83;;;8.37;;
4674;SDS011;2351;50.812;12.872;2022-11-18T12:19:42;18.33;;;7.17;;
4674;SDS011;2351;50.812;12.872;2022-11-18T12:22:14;16.83;;;7.50;;
4674;SDS011;2351;50.812;12.872;2022-11-18T12:24:46;17.80;;;6.60;;
4674;SDS011;2351;50.812;12.872;2022-11-18T12:30:27;19.80;;;9.97;;
4674;SDS011;2351;50.812;12.872;2022-11-18T12:32:59;16.30;;;8.50;;
4674;SDS011;2351;50.812;12.872;2022-11-18T12:35:32;16.47;;;8.20;;
4674;SDS011;2351;50.812;12.872;2022-11-18T12:38:04;16.43;;;8.20;;
4674;SDS011;2351;50.812;12.872;2022-11-18T12:40:37;15.67;;;8.53;;
4674;SDS011;2351;50.812;12.872;2022-11-18T12:46:46;17.23;;;8.00;;
4674;SDS011;2351;50.812;12.872;2022-11-18T12:52:53;21.40;;;7.63;;
4674;SDS011;2351;50.812;12.872;2022-11-18T12:55:29;19.60;;;7.83;;
4674;SDS011;2351;50.812;12.872;2022-11-18T12:58:16;16.30;;;7.70;;
4674;SDS011;2351;50.812;12.872;2022-11-18T13:01:02;18.40;;;7.60;;
4674;SDS011;2351;50.812;12.872;2022-11-18T13:03:36;13.90;;;6.73;;
4674;SDS011;2351;50.812;12.872;2022-11-18T13:06:14;13.90;;;6.13;;
4674;SDS011;2351;50.812;12.872;2022-11-18T13:08:56;18.87;;;8.40;;
4674;SDS011;2351;50.812;12.872;2022-11-18T13:11:31;15.80;;;7.10;;
4674;SDS011;2351;50.812;12.872;2022-11-18T13:14:17;14.70;;;6.50;;
4674;SDS011;2351;50.812;12.872;2022-11-18T13:17:24;17.33;;;6.03;;
4674;SDS011;2351;50.812;12.872;2022-11-18T13:20:22;9.10;;;4.50;;
4674;SDS011;2351;50.812;12.872;2022-11-18T13:23:00;9.73;;;5.20;;
4674;SDS011;2351;50.812;12.872;2022-11-18T13:25:52;13.10;;;5.90;;
4674;SDS011;2351;50.812;12.872;2022-11-18T13:28:27;10.20;;;5.50;;
4674;SDS011;2351;50.812;12.872;2022-11-18T13:31:09;7.17;;;4.43;;
4674;SDS011;2351;50.812;12.872;2022-11-18T13:33:48;10.07;;;5.30;;
4674;SDS011;2351;50.812;12.872;2022-11-18T13:36:21;10.87;;;6.27;;
4674;SDS011;2351;50.812;12.872;2022-11-18T13:38:55;10.37;;;5.63;;
4674;SDS011;2351;50.812;12.872;2022-11-18T13:41:29;12.10;;;6.37;;
4674;SDS011;2351;50.812;12.872;2022-11-18T13:44:09;12.33;;;6.80;;
4674;SDS011;2351;50.812;12.872;2022-11-18T13:46:42;14.63;;;7.10;;
4674;SDS011;2351;50.812;12.872;2022-11-18T13:49:16;16.80;;;7.10;;
4674;SDS011;2351;50.812;12.872;2022-11-18T13:51:54;12.87;;;7.17;;
4674;SDS011;2351;50.812;12.872;2022-11-18T13:54:26;16.00;;;6.33;;
4674;SDS011;2351;50.812;12.872;2022-11-18T13:56:59;14.83;;;7.30;;
4674;SDS011;2351;50.812;12.872;2022-11-18T13:59:31;13.53;;;6.53;;
4674;SDS011;2351;50.812;12.872;2022-11-18T14:02:07;12.50;;;6.27;;
4674;SDS011;2351;50.812;12.872;2022-11-18T14:04:50;15.63;;;6.90;;
4674;SDS011;2351;50.812;12.872;2022-11-18T14:07:25;12.90;;;7.17;;
4674;SDS011;2351;50.812;12.872;2022-11-18T14:10:00;16.17;;;7.20;;
4674;SDS011;2351;50.812;12.872;2022-11-18T14:12:36;14.27;;;6.63;;
4674;SDS011;2351;50.812;12.872;2022-11-18T14:15:11;16.97;;;8.70;;
4674;SDS011;2351;50.812;12.872;2022-11-18T14:17:52;18.93;;;9.20;;
4674;SDS011;2351;50.812;12.872;2022-11-18T14:20:26;17.43;;;9.10;;
4674;SDS011;2351;50.812;12.872;2022-11-18T14:22:59;28.57;;;12.40;;
4674;SDS011;2351;50.812;12.872;2022-11-18T14:25:34;20.87;;;10.10;;
4674;SDS011;2351;50.812;12.872;2022-11-18T14:28:12;21.97;;;11.50;;
4674;SDS011;2351;50.812;12.872;2022-11-18T14:31:00;23.03;;;11.73;;
4674;SDS011;2351;50.812;12.872;2022-11-18T14:33:34;26.53;;;12.00;;
4674;SDS011;2351;50.812;12.872;2022-11-18T14:36:08;29.63;;;12.97;;
4674;SDS011;2351;50.812;12.872;2022-11-18T14:38:42;21.03;;;11.00;;
4674;SDS011;2351;50.812;12.872;2022-11-18T14:41:17;32.60;;;13.73;;
4674;SDS011;2351;50.812;12.872;2022-11-18T14:44:11;28.10;;;12.00;;
4674;SDS011;2351;50.812;12.872;2022-11-18T14:46:43;26.17;;;12.80;;
4674;SDS011;2351;50.812;12.872;2022-11-18T14:49:18;34.40;;;13.40;;
4674;SDS011;2351;50.812;12.872;2022-11-18T14:51:53;31.27;;;13.30;;
4674;SDS011;2351;50.812;12.872;2022-11-18T14:54:25;24.60;;;12.03;;
4674;SDS011;2351;50.812;12.872;2022-11-18T14:56:57;24.60;;;12.10;;
4674;SDS011;2351;50.812;12.872;2022-11-18T14:59:32;26.60;;;11.80;;
4674;SDS011;2351;50.812;12.872;2022-11-18T15:02:05;30.57;;;12.60;;
4674;SDS011;2351;50.812;12.872;2022-11-18T15:04:43;22.87;;;12.20;;
4674;SDS011;2351;50.812;12.872;2022-11-18T15:07:15;22.43;;;12.10;;
4674;SDS011;2351;50.812;12.872;2022-11-18T15:09:47;25.57;;;13.90;;
4674;SDS011;2351;50.812;12.872;2022-11-18T15:12:19;26.73;;;12.30;;
4674;SDS011;2351;50.812;12.872;2022-11-18T15:14:52;26.20;;;11.60;;
4674;SDS011;2351;50.812;12.872;2022-11-18T15:17:24;26.37;;;12.20;;
4674;SDS011;2351;50.812;12.872;2022-11-18T15:19:56;28.10;;;13.53;;
4674;SDS011;2351;50.812;12.872;2022-11-18T15:22:29;23.57;;;12.33;;
4674;SDS011;2351;50.812;12.872;2022-11-18T15:25:00;27.33;;;12.93;;
4674;SDS011;2351;50.812;12.872;2022-11-18T15:27:32;26.20;;;13.03;;
4674;SDS011;2351;50.812;12.872;2022-11-18T15:30:06;27.30;;;12.93;;
4674;SDS011;2351;50.812;12.872;2022-11-18T15:32:38;27.47;;;13.60;;
4674;SDS011;2351;50.812;12.872;2022-11-18T15:35:11;30.20;;;14.77;;
4674;SDS011;2351;50.812;12.872;2022-11-18T15:37:43;33.37;;;15.83;;
4674;SDS011;2351;50.812;12.872;2022-11-18T15:40:15;34.00;;;14.80;;
4674;SDS011;2351;50.812;12.872;2022-11-18T15:42:47;36.60;;;17.10;;
4674;SDS011;2351;50.812;12.872;2022-11-18T15:45:20;28.23;;;14.57;;
4674;SDS011;2351;50.812;12.872;2022-11-18T15:47:52;31.50;;;14.33;;
4674;SDS011;2351;50.812;12.872;2022-11-18T15:50:23;34.70;;;17.20;;
4674;SDS011;2351;50.812;12.872;2022-11-18T15:52:55;33.30;;;17.17;;
4674;SDS011;2351;50.812;12.872;2022-11-18T15:55:27;42.30;;;19.40;;